Time;durP1;ratioP1;P1;durP2;ratioP2;P2;SDS_P1;SDS_P2;PMS_P1;PMS_P2;Temp;Humidity;BMP_temperature;BMP_pressure;BME280_temperature;BME280_humidity;BME280_pressure;Samples;Min_cycle;Max_cycle;Signal;HPM_P1;HPM_P2
2023/03/22 00:00:53;;;;;;;16.67;8.57;;;10.60;99.90;;;;;;5066121;28;20040;-92
2023/03/22 00:03:19;;;;;;;13.75;7.60;;;10.60;99.90;;;;;;5063436;28;20516;-94
2023/03/22 00:05:45;;;;;;;14.32;7.03;;;10.60;99.90;;;;;;5067232;28;20044;-93
2023/03/22 00:08:12;;;;;;;15.07;7.00;;;10.70;99.90;;;;;;5093438;28;20397;-92
2023/03/22 00:10:39;;;;;;;13.77;7.07;;;10.70;99.90;;;;;;5058467;28;20036;-93
2023/03/22 00:13:06;;;;;;;13.98;6.57;;;10.70;99.90;;;;;;5074719;28;20081;-94
2023/03/22 00:15:35;;;;;;;14.65;6.82;;;10.70;99.90;;;;;;5074775;28;20048;-93
2023/03/22 00:18:02;;;;;;;13.70;6.68;;;10.70;99.90;;;;;;5083577;28;20083;-94
2023/03/22 00:20:35;;;;;;;12.52;6.32;;;10.70;99.90;;;;;;5080365;28;20079;-94
2023/03/22 00:23:01;;;;;;;13.70;6.45;;;10.70;99.90;;;;;;5066922;28;20080;-94
2023/03/22 00:25:27;;;;;;;14.43;7.65;;;10.70;99.90;;;;;;5097840;28;20161;-94
2023/03/22 00:27:52;;;;;;;17.48;7.85;;;10.70;99.90;;;;;;5079240;28;20043;-93
2023/03/22 00:30:18;;;;;;;14.93;7.40;;;10.70;99.90;;;;;;5099438;28;20028;-94
2023/03/22 00:32:44;;;;;;;15.88;6.80;;;10.70;99.90;;;;;;5104101;28;20071;-95
2023/03/22 00:35:10;;;;;;;15.18;7.22;;;10.60;99.90;;;;;;5092230;28;20497;-94
2023/03/22 00:37:40;;;;;;;15.68;7.65;;;10.60;99.90;;;;;;5074392;28;20783;-94
2023/03/22 00:40:08;;;;;;;16.40;6.97;;;10.60;99.90;;;;;;5075916;28;20036;-94
2023/03/22 00:42:39;;;;;;;17.63;7.97;;;10.60;99.90;;;;;;5090538;28;20044;-95
2023/03/22 00:45:06;;;;;;;14.88;6.35;;;10.60;99.90;;;;;;5073884;28;20036;-93
2023/03/22 00:47:32;;;;;;;10.80;5.45;;;10.50;99.90;;;;;;5091001;28;20040;-95
2023/03/22 00:49:58;;;;;;;13.27;6.15;;;10.50;99.90;;;;;;5074553;28;20501;-94
2023/03/22 00:52:24;;;;;;;12.10;6.05;;;10.50;99.90;;;;;;5090737;28;20513;-95
2023/03/22 00:54:50;;;;;;;14.25;5.80;;;10.50;99.90;;;;;;5074555;28;20043;-95
2023/03/22 00:57:16;;;;;;;13.98;6.13;;;10.50;99.90;;;;;;5074664;28;20397;-94
2023/03/22 00:59:42;;;;;;;14.93;5.43;;;10.50;99.90;;;;;;5073695;28;20032;-94
2023/03/22 01:02:12;;;;;;;11.20;5.70;;;10.50;99.90;;;;;;5074413;28;20146;-95
2023/03/22 01:04:38;;;;;;;12.93;6.05;;;10.50;99.90;;;;;;5074063;28;20106;-94
2023/03/22 01:07:06;;;;;;;14.63;5.82;;;10.50;99.90;;;;;;5074632;28;20398;-94
2023/03/22 01:09:32;;;;;;;16.02;6.30;;;10.50;99.90;;;;;;5075063;28;20040;-94
2023/03/22 01:12:00;;;;;;;14.80;6.65;;;10.50;99.90;;;;;;5074207;28;20040;-95
2023/03/22 01:14:27;;;;;;;13.18;6.90;;;10.40;99.90;;;;;;5074241;28;20040;-94
2023/03/22 01:16:56;;;;;;;11.48;5.25;;;10.40;99.90;;;;;;5074565;28;20032;-93
2023/03/22 01:19:26;;;;;;;15.10;5.45;;;10.40;99.90;;;;;;5073736;28;20071;-94
2023/03/22 01:21:52;;;;;;;13.85;5.30;;;10.40;99.90;;;;;;5074170;28;20122;-95
2023/03/22 01:24:18;;;;;;;11.68;4.68;;;10.40;99.90;;;;;;5073772;28;20051;-94
2023/03/22 01:26:44;;;;;;;14.05;5.13;;;10.40;99.90;;;;;;5073843;28;20052;-95
2023/03/22 01:29:10;;;;;;;12.80;4.13;;;10.40;99.90;;;;;;5074086;28;20044;-95
2023/03/22 01:31:35;;;;;;;11.45;4.28;;;10.40;99.90;;;;;;5090044;28;20542;-95
2023/03/22 01:34:02;;;;;;;14.20;4.05;;;10.50;99.90;;;;;;5074226;28;20044;-95
2023/03/22 01:36:28;;;;;;;12.15;4.15;;;10.40;99.90;;;;;;5090491;28;20718;-94
2023/03/22 01:38:54;;;;;;;11.23;4.53;;;10.40;99.90;;;;;;5072994;28;20086;-93
2023/03/22 01:41:20;;;;;;;11.40;4.00;;;10.40;99.90;;;;;;5072773;28;20039;-92
2023/03/22 01:44:15;;;;;;;10.43;3.50;;;10.40;99.90;;;;;;5072841;28;20059;-93
2023/03/22 01:46:43;;;;;;;12.60;3.72;;;10.40;99.90;;;;;;5074158;28;20079;-92
2023/03/22 01:49:16;;;;;;;10.73;4.35;;;10.40;99.90;;;;;;5072520;28;20036;-93
2023/03/22 01:51:43;;;;;;;12.05;3.58;;;10.40;99.90;;;;;;5073530;28;20052;-93
2023/03/22 01:54:15;;;;;;;10.75;3.92;;;10.40;99.90;;;;;;5090240;28;20036;-93
2023/03/22 01:56:41;;;;;;;12.95;3.42;;;10.30;99.90;;;;;;5074098;28;20044;-93
2023/03/22 01:59:10;;;;;;;11.20;3.30;;;10.30;99.90;;;;;;5091128;28;20508;-93
2023/03/22 02:01:36;;;;;;;9.20;3.38;;;10.30;99.90;;;;;;5089862;28;20493;-94
2023/03/22 02:04:16;;;;;;;13.38;3.90;;;10.30;99.90;;;;;;5073153;28;20051;-93
2023/03/22 02:06:43;;;;;;;10.43;3.70;;;10.30;99.90;;;;;;5071012;28;20032;-94
2023/03/22 02:09:15;;;;;;;10.38;3.90;;;10.30;99.90;;;;;;5072026;28;20036;-94
2023/03/22 02:11:45;;;;;;;13.38;4.22;;;10.30;99.90;;;;;;5072262;28;20032;-94
2023/03/22 02:14:18;;;;;;;10.30;3.78;;;10.30;99.90;;;;;;5089202;28;20036;-92
2023/03/22 02:17:13;;;;;;;11.27;3.65;;;10.30;99.90;;;;;;5072693;28;20050;-93
2023/03/22 02:20:08;;;;;;;11.82;4.45;;;10.30;99.90;;;;;;5072356;28;20043;-93
2023/03/22 02:22:37;;;;;;;14.43;4.00;;;10.20;99.90;;;;;;5072997;28;20044;-95
2023/03/22 02:25:41;;;;;;;13.80;4.28;;;10.20;99.90;;;;;;5072595;28;20040;-93
2023/03/22 02:28:19;;;;;;;;;;;10.20;99.90;;;;;;5090148;28;20135;-92
2023/03/22 02:31:16;;;;;;;11.07;3.72;;;10.20;99.90;;;;;;5072988;28;19927;-94
2023/03/22 02:34:00;;;;;;;14.55;3.67;;;10.20;99.90;;;;;;5093549;28;20080;-94
2023/03/22 02:36:41;;;;;;;11.27;3.92;;;10.20;99.90;;;;;;5076516;28;20536;-94
2023/03/22 02:39:28;;;;;;;11.82;3.75;;;10.10;99.90;;;;;;5077325;28;20032;-92
2023/03/22 02:42:19;;;;;;;12.77;3.75;;;10.10;99.90;;;;;;5076370;28;20039;-93
2023/03/22 02:44:50;;;;;;;11.95;3.90;;;10.10;99.90;;;;;;5076629;28;20087;-93
2023/03/22 02:47:33;;;;;;;10.52;3.95;;;10.10;99.90;;;;;;5076594;28;20097;-92
2023/03/22 02:50:47;;;;;;;8.52;2.85;;;10.10;99.90;;;;;;5076751;28;20404;-92
2023/03/22 02:53:21;;;;;;;11.77;3.58;;;10.10;99.90;;;;;;5049248;28;20516;-92
2023/03/22 02:56:05;;;;;;;10.38;3.33;;;10.10;99.90;;;;;;5076305;28;20040;-93
2023/03/22 02:58:36;;;;;;;8.98;3.33;;;10.10;99.90;;;;;;5075987;28;20078;-91
2023/03/22 03:01:07;;;;;;;9.88;3.40;;;10.10;99.90;;;;;;5076241;28;20134;-92
2023/03/22 03:03:36;;;;;;;10.02;3.22;;;10.10;99.90;;;;;;5076472;28;20035;-93
2023/03/22 03:06:11;;;;;;;11.30;3.45;;;10.10;99.90;;;;;;5092567;28;20040;-92
2023/03/22 03:08:38;;;;;;;9.55;3.53;;;10.20;99.90;;;;;;5076286;28;20040;-93
2023/03/22 03:11:05;;;;;;;9.10;3.13;;;10.20;99.90;;;;;;5075853;28;20493;-93
2023/03/22 03:13:31;;;;;;;9.55;3.17;;;10.20;99.90;;;;;;5076164;28;20053;-92
2023/03/22 03:15:59;;;;;;;9.73;4.07;;;10.20;99.90;;;;;;5092920;28;20033;-92
2023/03/22 03:18:39;;;;;;;11.35;3.63;;;10.20;99.90;;;;;;5076045;28;20169;-93
2023/03/22 03:21:29;;;;;;;8.55;3.00;;;10.20;99.90;;;;;;5076189;28;20047;-93
2023/03/22 03:24:19;;;;;;;10.82;3.00;;;10.20;99.90;;;;;;5092438;28;20076;-92
2023/03/22 03:27:07;;;;;;;10.63;3.25;;;10.20;99.90;;;;;;5075219;28;20459;-91
2023/03/22 03:30:05;;;;;;;12.40;3.47;;;10.20;99.90;;;;;;5076120;28;20405;-92
2023/03/22 03:32:42;;;;;;;12.45;3.35;;;10.30;99.90;;;;;;5091580;28;20051;-92
2023/03/22 03:35:21;;;;;;;10.95;2.83;;;10.20;99.90;;;;;;5092360;28;20519;-92
2023/03/22 03:38:18;;;;;;;9.70;3.17;;;10.20;99.90;;;;;;5075093;28;20724;-93
2023/03/22 03:40:53;;;;;;;7.93;2.85;;;10.30;99.90;;;;;;5073891;28;20044;-92
2023/03/22 03:43:20;;;;;;;8.43;2.72;;;10.30;99.90;;;;;;5075334;28;20044;-91
2023/03/22 03:45:46;;;;;;;10.82;2.92;;;10.30;99.90;;;;;;5074855;28;20043;-92
2023/03/22 03:48:19;;;;;;;9.63;3.03;;;10.30;99.90;;;;;;5075245;28;20040;-92
2023/03/22 03:50:49;;;;;;;11.27;3.65;;;10.30;99.90;;;;;;5073831;28;20120;-92
2023/03/22 03:53:15;;;;;;;10.45;3.42;;;10.30;99.90;;;;;;5075197;28;20044;-93
2023/03/22 03:55:41;;;;;;;7.80;2.88;;;10.30;99.90;;;;;;5075489;28;20107;-93
2023/03/22 03:58:08;;;;;;;12.40;4.28;;;10.30;99.90;;;;;;5091947;28;20552;-92
2023/03/22 04:00:35;;;;;;;13.90;4.30;;;10.30;99.90;;;;;;5075480;28;20040;-92
2023/03/22 04:03:01;;;;;;;9.30;3.50;;;10.30;99.90;;;;;;5074742;28;20500;-92
2023/03/22 04:05:27;;;;;;;11.48;4.35;;;10.40;99.90;;;;;;5075078;28;20118;-91
2023/03/22 04:07:53;;;;;;;12.27;4.57;;;10.40;99.90;;;;;;5090841;28;20072;-93
2023/03/22 04:10:18;;;;;;;13.60;4.70;;;10.40;99.90;;;;;;5074356;28;20047;-92
2023/03/22 04:12:44;;;;;;;12.55;5.07;;;10.40;99.90;;;;;;5074403;28;20480;-92
2023/03/22 04:15:11;;;;;;;11.98;4.95;;;10.40;99.90;;;;;;5091359;28;20405;-92
2023/03/22 04:17:38;;;;;;;13.80;6.00;;;10.40;99.90;;;;;;5074352;28;20093;-92
2023/03/22 04:20:05;;;;;;;12.38;6.13;;;10.40;99.90;;;;;;5074416;28;20072;-92
2023/03/22 04:22:33;;;;;;;14.52;6.82;;;10.40;99.90;;;;;;5074168;28;20079;-92
2023/03/22 04:25:00;;;;;;;14.07;7.25;;;10.40;99.90;;;;;;5091819;28;20082;-92
2023/03/22 04:27:26;;;;;;;18.38;7.60;;;10.40;99.90;;;;;;5073260;28;20040;-92
2023/03/22 04:29:53;;;;;;;15.60;8.30;;;10.50;99.90;;;;;;5074015;28;20036;-92
2023/03/22 04:32:21;;;;;;;16.02;8.27;;;10.50;99.90;;;;;;5073427;28;20036;-92
2023/03/22 04:34:51;;;;;;;16.42;8.73;;;10.50;99.90;;;;;;5091607;28;20500;-92
2023/03/22 04:37:18;;;;;;;16.58;8.40;;;10.50;99.90;;;;;;5074802;28;20039;-92
2023/03/22 04:39:44;;;;;;;15.30;8.07;;;10.50;99.90;;;;;;5074352;28;20070;-93
2023/03/22 04:42:10;;;;;;;15.48;8.75;;;10.50;99.90;;;;;;5074542;28;20051;-91
2023/03/22 04:44:35;;;;;;;15.82;8.57;;;10.50;99.90;;;;;;5091119;28;20028;-93
2023/03/22 04:47:01;;;;;;;17.85;9.27;;;10.50;99.90;;;;;;5091285;28;20069;-94
2023/03/22 04:49:27;;;;;;;16.15;8.70;;;10.50;99.90;;;;;;5090586;28;20120;-93
2023/03/22 04:51:56;;;;;;;17.30;8.70;;;10.60;99.90;;;;;;5090577;28;20036;-92
2023/03/22 04:54:22;;;;;;;15.20;8.70;;;10.60;99.90;;;;;;5074488;28;20122;-93
2023/03/22 04:56:48;;;;;;;18.63;9.20;;;10.60;99.90;;;;;;5089794;28;20042;-94
2023/03/22 04:59:18;;;;;;;19.52;9.05;;;10.60;99.90;;;;;;5091494;28;20035;-94
2023/03/22 05:01:48;;;;;;;17.27;8.90;;;10.60;99.90;;;;;;5073625;28;20135;-93
2023/03/22 05:04:14;;;;;;;19.38;8.95;;;10.60;99.90;;;;;;5074363;28;20044;-94
2023/03/22 05:06:40;;;;;;;15.10;8.93;;;10.60;99.90;;;;;;5091316;28;20123;-94
2023/03/22 05:09:06;;;;;;;16.02;8.65;;;10.60;99.90;;;;;;5073376;28;20492;-94
2023/03/22 05:11:31;;;;;;;16.25;9.23;;;10.60;99.90;;;;;;5073815;28;20036;-94
2023/03/22 05:13:57;;;;;;;14.68;8.60;;;10.60;99.90;;;;;;5073857;28;20036;-94
2023/03/22 05:16:23;;;;;;;15.98;9.75;;;10.70;99.90;;;;;;5090588;28;20047;-94
2023/03/22 05:18:53;;;;;;;18.25;9.65;;;10.70;99.90;;;;;;5073834;28;20051;-93
2023/03/22 05:21:20;;;;;;;16.17;9.35;;;10.60;99.90;;;;;;5090726;28;20039;-95
2023/03/22 05:23:48;;;;;;;15.82;8.43;;;10.60;99.90;;;;;;5074228;28;20043;-93
2023/03/22 05:26:14;;;;;;;15.02;8.52;;;10.70;99.90;;;;;;5072955;28;20046;-93
2023/03/22 05:28:41;;;;;;;15.95;8.23;;;10.70;99.90;;;;;;5073786;28;20382;-94
2023/03/22 05:31:09;;;;;;;16.25;8.48;;;10.70;99.90;;;;;;5090036;28;20040;-94
2023/03/22 05:33:34;;;;;;;13.68;8.75;;;10.70;99.90;;;;;;5073284;28;20497;-93
2023/03/22 05:36:00;;;;;;;14.30;8.45;;;10.70;99.90;;;;;;5073625;28;20043;-94
2023/03/22 05:38:26;;;;;;;15.93;8.07;;;10.60;99.90;;;;;;5090225;28;20101;-94
2023/03/22 05:40:52;;;;;;;17.02;8.57;;;10.60;99.90;;;;;;5073872;28;20393;-94
2023/03/22 05:43:19;;;;;;;15.00;9.00;;;10.60;99.90;;;;;;5073470;28;20546;-93
2023/03/22 05:45:45;;;;;;;13.93;8.05;;;10.60;99.90;;;;;;5090328;28;20817;-93
2023/03/22 05:48:11;;;;;;;17.00;8.50;;;10.60;99.90;;;;;;5073215;28;20537;-93
2023/03/22 05:50:37;;;;;;;14.73;8.27;;;10.60;99.90;;;;;;5089693;28;20131;-94
2023/03/22 05:53:03;;;;;;;14.20;8.23;;;10.60;99.90;;;;;;5073485;28;20122;-93
2023/03/22 05:55:30;;;;;;;16.30;8.80;;;10.60;99.90;;;;;;5073448;28;20039;-94
2023/03/22 05:57:57;;;;;;;14.32;8.55;;;10.60;99.90;;;;;;5072990;28;20039;-94
2023/03/22 06:00:24;;;;;;;14.90;7.43;;;10.60;99.90;;;;;;5072932;28;20024;-93
2023/03/22 06:02:55;;;;;;;15.20;8.60;;;10.70;99.90;;;;;;5090811;28;20040;-93
2023/03/22 06:05:22;;;;;;;12.88;7.80;;;10.60;99.90;;;;;;5073512;28;20039;-94
2023/03/22 06:07:47;;;;;;;14.00;7.40;;;10.60;99.90;;;;;;5075168;28;20584;-94
2023/03/22 06:10:14;;;;;;;12.73;7.50;;;10.60;99.90;;;;;;5094805;28;20135;-93
2023/03/22 06:12:40;;;;;;;13.70;7.28;;;10.60;99.90;;;;;;5093598;28;20036;-94
2023/03/22 06:15:07;;;;;;;15.77;7.70;;;10.70;99.90;;;;;;5101872;28;20465;-95
2023/03/22 06:17:33;;;;;;;16.48;7.80;;;10.60;99.90;;;;;;5085005;28;20400;-93
2023/03/22 06:19:59;;;;;;;18.00;7.45;;;10.70;99.90;;;;;;5077079;28;20036;-91
2023/03/22 06:22:25;;;;;;;14.52;7.50;;;10.70;99.90;;;;;;5094155;28;20040;-91
2023/03/22 06:24:51;;;;;;;14.52;8.13;;;10.70;99.90;;;;;;5087241;28;20037;-90
2023/03/22 06:27:16;;;;;;;13.35;6.55;;;10.70;99.90;;;;;;5090119;28;20173;-90
2023/03/22 06:29:43;;;;;;;15.10;7.65;;;10.70;99.90;;;;;;5073155;28;20043;-91
2023/03/22 06:32:09;;;;;;;11.65;6.47;;;10.70;99.90;;;;;;5075615;28;20093;-91
2023/03/22 06:34:35;;;;;;;14.38;6.47;;;10.60;99.90;;;;;;5076704;28;20039;-90
2023/03/22 06:37:01;;;;;;;14.63;6.22;;;10.60;99.90;;;;;;5093358;28;20038;-91
2023/03/22 06:39:27;;;;;;;12.80;6.43;;;10.70;99.90;;;;;;5092910;28;20606;-90
2023/03/22 06:41:52;;;;;;;11.85;5.43;;;10.70;99.90;;;;;;5075657;28;20039;-90
2023/03/22 06:44:18;;;;;;;15.18;6.53;;;10.70;99.90;;;;;;5076449;28;20471;-90
2023/03/22 06:46:44;;;;;;;13.00;5.60;;;10.70;99.90;;;;;;5076607;28;20036;-91
2023/03/22 06:49:10;;;;;;;11.40;5.63;;;10.70;99.90;;;;;;5092901;28;20040;-90
2023/03/22 06:51:36;;;;;;;13.43;6.18;;;10.70;99.90;;;;;;5076370;28;20386;-90
2023/03/22 06:54:01;;;;;;;15.40;6.03;;;10.70;99.90;;;;;;5076546;28;20067;-91
2023/03/22 06:56:27;;;;;;;12.43;5.43;;;10.80;99.90;;;;;;5076273;28;20032;-91
2023/03/22 06:58:53;;;;;;;11.90;5.55;;;10.80;99.90;;;;;;5075919;28;20040;-91
2023/03/22 07:01:20;;;;;;;12.35;5.95;;;10.80;99.90;;;;;;5075868;28;20036;-91
2023/03/22 07:03:46;;;;;;;10.50;4.78;;;10.80;99.90;;;;;;5076058;28;20047;-93
2023/03/22 07:06:12;;;;;;;10.48;5.15;;;10.90;99.90;;;;;;5076450;28;20060;-93
2023/03/22 07:08:38;;;;;;;10.82;4.43;;;10.90;99.90;;;;;;5075180;28;20043;-92
2023/03/22 07:11:06;;;;;;;11.75;4.68;;;10.90;99.90;;;;;;5065221;28;20040;-93
2023/03/22 07:13:32;;;;;;;14.63;5.65;;;11.00;99.90;;;;;;5070679;28;20071;-92
2023/03/22 07:16:00;;;;;;;11.70;5.78;;;11.00;99.90;;;;;;5076975;28;20441;-94
2023/03/22 07:18:26;;;;;;;12.70;4.95;;;11.10;99.90;;;;;;5075962;28;20439;-93
2023/03/22 07:20:52;;;;;;;11.02;4.25;;;11.10;99.90;;;;;;5092242;28;20045;-92
2023/03/22 07:23:18;;;;;;;11.35;4.43;;;11.10;99.90;;;;;;5093107;28;20574;-92
2023/03/22 07:25:45;;;;;;;11.48;4.82;;;11.10;99.90;;;;;;5075881;28;20086;-92
2023/03/22 07:28:11;;;;;;;11.18;4.20;;;11.10;99.90;;;;;;5091585;28;20040;-92
2023/03/22 07:30:37;;;;;;;11.25;4.90;;;11.10;99.90;;;;;;5075769;28;20043;-92
2023/03/22 07:33:08;;;;;;;11.95;4.32;;;11.10;99.90;;;;;;5092395;28;20062;-93
2023/03/22 07:35:35;;;;;;;12.07;4.22;;;11.10;99.90;;;;;;5076155;28;20494;-92
2023/03/22 07:38:01;;;;;;;11.30;4.05;;;11.10;99.90;;;;;;5074747;28;20035;-92
2023/03/22 07:40:28;;;;;;;11.48;3.95;;;11.10;99.90;;;;;;5075190;28;20039;-92
2023/03/22 07:42:53;;;;;;;9.45;3.85;;;11.10;99.90;;;;;;5091096;28;20516;-92
2023/03/22 07:45:20;;;;;;;10.50;3.95;;;11.20;99.90;;;;;;5074052;28;20047;-93
2023/03/22 07:47:46;;;;;;;9.18;3.17;;;11.20;99.90;;;;;;5090804;28;20186;-93
2023/03/22 07:50:12;;;;;;;10.50;4.45;;;11.20;99.90;;;;;;5090663;28;20044;-93
2023/03/22 07:52:41;;;;;;;13.57;4.25;;;11.30;99.90;;;;;;5073941;28;20032;-92
2023/03/22 07:55:09;;;;;;;10.07;3.63;;;11.40;99.90;;;;;;5073469;28;20460;-91
2023/03/22 07:57:35;;;;;;;10.35;3.42;;;11.50;99.90;;;;;;5091940;28;20039;-92
2023/03/22 08:00:03;;;;;;;12.95;3.88;;;11.60;99.90;;;;;;5075257;28;20035;-92
2023/03/22 08:02:29;;;;;;;8.30;2.70;;;11.60;99.90;;;;;;5074656;28;20036;-92
2023/03/22 08:04:55;;;;;;;8.38;3.28;;;11.60;99.90;;;;;;5075849;28;20565;-93
2023/03/22 08:07:21;;;;;;;9.35;3.33;;;11.60;99.90;;;;;;5074317;28;20512;-92
2023/03/22 08:09:47;;;;;;;11.52;3.45;;;11.60;99.90;;;;;;5092093;28;20047;-92
2023/03/22 08:12:12;;;;;;;11.48;3.50;;;11.50;99.90;;;;;;5091587;28;20492;-92
2023/03/22 08:14:38;;;;;;;11.93;3.42;;;11.50;99.90;;;;;;5074856;28;20152;-92
2023/03/22 08:17:04;;;;;;;11.80;3.17;;;11.50;99.90;;;;;;5074991;28;20039;-92
2023/03/22 08:19:31;;;;;;;8.80;3.28;;;11.40;99.90;;;;;;5073900;28;20127;-93
2023/03/22 08:21:58;;;;;;;9.35;3.15;;;11.50;99.90;;;;;;5075173;28;20040;-92
2023/03/22 08:24:24;;;;;;;12.35;3.55;;;11.40;99.90;;;;;;5075196;28;20485;-93
2023/03/22 08:26:50;;;;;;;11.52;3.13;;;11.40;99.90;;;;;;5074339;28;20085;-91
2023/03/22 08:29:17;;;;;;;11.98;3.22;;;11.40;99.90;;;;;;5073069;28;20739;-93
2023/03/22 08:31:43;;;;;;;11.70;3.58;;;11.40;99.90;;;;;;5072635;28;20047;-92
2023/03/22 08:34:09;;;;;;;9.35;2.80;;;11.40;99.90;;;;;;5073435;28;20024;-91
2023/03/22 08:36:36;;;;;;;13.07;3.75;;;11.40;99.90;;;;;;5089628;28;20394;-91
2023/03/22 08:39:03;;;;;;;8.10;2.63;;;11.50;99.90;;;;;;5072960;28;20115;-91
2023/03/22 08:41:29;;;;;;;10.55;3.72;;;11.50;99.90;;;;;;5072990;28;20062;-92
2023/03/22 08:43:56;;;;;;;12.15;3.00;;;11.50;99.90;;;;;;5072716;28;20040;-92
2023/03/22 08:46:22;;;;;;;8.88;2.95;;;11.50;99.90;;;;;;5073077;28;20067;-92
2023/03/22 08:48:51;;;;;;;12.20;3.08;;;11.50;99.90;;;;;;5071538;28;20673;-90
2023/03/22 08:51:19;;;;;;;9.05;2.85;;;11.50;99.90;;;;;;5072497;28;20036;-91
2023/03/22 08:53:48;;;;;;;8.95;2.92;;;11.60;99.90;;;;;;5072697;28;20400;-91
2023/03/22 08:56:15;;;;;;;10.18;2.88;;;11.60;99.90;;;;;;5073985;28;20056;-92
2023/03/22 08:58:45;;;;;;;10.25;2.85;;;11.70;99.90;;;;;;5073590;28;20047;-91
2023/03/22 09:01:12;;;;;;;9.88;2.53;;;11.60;99.90;;;;;;5072378;28;20067;-91
2023/03/22 09:03:38;;;;;;;8.73;2.72;;;11.60;99.90;;;;;;5089794;28;20177;-91
2023/03/22 09:06:05;;;;;;;10.30;3.28;;;11.60;99.90;;;;;;5072633;28;20070;-92
2023/03/22 09:08:31;;;;;;;8.63;2.50;;;11.70;99.90;;;;;;5072269;28;20068;-91
2023/03/22 09:10:57;;;;;;;10.55;3.30;;;11.70;99.90;;;;;;5072006;28;20051;-92
2023/03/22 09:13:22;;;;;;;15.90;2.92;;;11.70;99.90;;;;;;5087966;28;20405;-92
2023/03/22 09:15:50;;;;;;;11.93;2.92;;;11.90;99.90;;;;;;5088790;28;20104;-93
2023/03/22 09:18:15;;;;;;;8.77;2.80;;;12.00;99.90;;;;;;5072313;28;20040;-93
2023/03/22 09:20:42;;;;;;;12.10;3.08;;;12.10;99.90;;;;;;5089078;28;20043;-92
2023/03/22 09:23:08;;;;;;;12.20;3.28;;;12.10;99.90;;;;;;5091030;28;20089;-92
2023/03/22 09:25:34;;;;;;;10.98;3.08;;;12.10;99.90;;;;;;5072586;28;20497;-94
2023/03/22 09:28:00;;;;;;;12.88;3.38;;;12.10;99.90;;;;;;5073143;28;20127;-93
2023/03/22 09:30:26;;;;;;;9.82;3.08;;;12.10;99.90;;;;;;5074615;28;20059;-95
2023/03/22 09:32:51;;;;;;;12.15;5.28;;;12.10;99.90;;;;;;5072523;28;20040;-93
2023/03/22 09:35:17;;;;;;;11.10;3.65;;;12.10;99.90;;;;;;5090339;28;20408;-93
2023/03/22 09:37:44;;;;;;;10.27;3.17;;;12.10;99.90;;;;;;5088941;28;20024;-93
2023/03/22 09:40:11;;;;;;;12.75;4.43;;;12.10;99.90;;;;;;5072817;28;20044;-92
2023/03/22 09:43:06;;;;;;;14.52;3.22;;;12.10;99.90;;;;;;5074496;28;20043;-94
2023/03/22 09:45:40;;;;;;;8.88;2.75;;;12.10;99.90;;;;;;5073083;28;20052;-93
2023/03/22 09:48:19;;;;;;;14.90;3.47;;;12.10;99.90;;;;;;5076688;28;20039;-94
2023/03/22 09:50:51;;;;;;;12.52;3.10;;;12.10;99.90;;;;;;5110868;28;20032;-94
2023/03/22 09:53:17;;;;;;;8.93;2.93;;;12.00;99.90;;;;;;5093816;28;20036;-95
2023/03/22 09:56:14;;;;;;;8.48;2.78;;;12.00;99.90;;;;;;5077333;28;20035;-94
2023/03/22 09:59:08;;;;;;;10.35;3.13;;;12.00;99.90;;;;;;5039668;28;20048;-93
2023/03/22 10:01:47;;;;;;;7.95;2.72;;;12.00;99.90;;;;;;5077667;28;20035;-92
2023/03/22 10:04:29;;;;;;;11.98;3.17;;;12.00;99.90;;;;;;5076698;28;20086;-93
2023/03/22 10:07:23;;;;;;;11.50;3.50;;;11.90;99.90;;;;;;5077028;28;20048;-93
2023/03/22 10:10:06;;;;;;;10.30;3.22;;;11.90;99.90;;;;;;5093459;28;20048;-93
2023/03/22 10:12:53;;;;;;;11.27;3.13;;;11.90;99.90;;;;;;5093758;28;20123;-94
2023/03/22 10:15:25;;;;;;;9.50;3.72;;;11.90;99.90;;;;;;5071131;28;20088;-94
2023/03/22 10:17:54;;;;;;;10.05;2.75;;;11.90;99.90;;;;;;5076923;28;20040;-93
2023/03/22 10:20:27;;;;;;;9.05;3.20;;;11.80;99.90;;;;;;5095458;28;20429;-94
2023/03/22 10:22:57;;;;;;;11.18;2.78;;;11.80;99.90;;;;;;5067771;28;20035;-93
2023/03/22 10:25:32;;;;;;;12.93;3.47;;;11.80;99.90;;;;;;5092597;28;20127;-94
2023/03/22 10:27:58;;;;;;;11.82;3.28;;;11.80;99.90;;;;;;5092646;28;20040;-94
2023/03/22 10:30:33;;;;;;;9.05;3.28;;;11.80;99.90;;;;;;5076367;28;20123;-93
2023/03/22 10:33:04;;;;;;;11.20;3.15;;;11.80;99.90;;;;;;5076142;28;20123;-94
2023/03/22 10:35:30;;;;;;;11.88;3.58;;;11.80;99.90;;;;;;5076447;28;20097;-93
2023/03/22 10:37:59;;;;;;;8.48;2.95;;;11.80;99.90;;;;;;5092806;28;20170;-94
2023/03/22 10:40:34;;;;;;;7.18;2.88;;;11.80;99.90;;;;;;5076236;28;20028;-93
2023/03/22 10:43:08;;;;;;;9.50;3.03;;;11.80;99.90;;;;;;5093079;28;20123;-93
2023/03/22 10:45:35;;;;;;;9.52;3.05;;;11.80;99.90;;;;;;5092771;28;20124;-94
2023/03/22 10:48:21;;;;;;;9.82;3.03;;;11.70;99.90;;;;;;5076361;28;20036;-93
2023/03/22 10:50:47;;;;;;;10.38;3.30;;;11.70;99.90;;;;;;5093601;28;20066;-94
2023/03/22 10:53:23;;;;;;;9.40;3.75;;;11.80;99.90;;;;;;5093013;28;20040;-94
2023/03/22 10:55:50;;;;;;;10.38;3.30;;;11.70;99.90;;;;;;5076951;28;20036;-95
2023/03/22 10:58:18;;;;;;;9.90;3.20;;;11.70;99.90;;;;;;5076101;28;20040;-94
2023/03/22 11:00:55;;;;;;;10.82;3.05;;;11.60;99.90;;;;;;5068203;28;20032;-95
2023/03/22 11:04:02;;;;;;;11.45;4.00;;;11.60;99.90;;;;;;5070585;28;20040;-95
2023/03/22 11:06:33;;;;;;;9.63;3.08;;;11.60;99.90;;;;;;5092693;28;20048;-94
2023/03/22 11:09:10;;;;;;;11.02;3.63;;;11.60;99.90;;;;;;5104103;28;20047;-94
2023/03/22 11:11:52;;;;;;;9.57;3.67;;;11.60;99.90;;;;;;5104107;28;20428;-94
2023/03/22 11:14:34;;;;;;;11.13;3.92;;;11.60;99.90;;;;;;5075510;28;20086;-93
2023/03/22 11:17:07;;;;;;;11.30;3.00;;;11.50;99.90;;;;;;5068703;28;20074;-93
2023/03/22 11:19:38;;;;;;;10.43;2.90;;;11.50;99.90;;;;;;5075965;28;20048;-94
2023/03/22 11:22:26;;;;;;;10.80;4.07;;;11.50;99.90;;;;;;5091808;28;20119;-94
2023/03/22 11:24:55;;;;;;;10.43;3.38;;;11.50;99.90;;;;;;5075455;28;20040;-93
2023/03/22 11:27:25;;;;;;;15.15;3.83;;;11.50;99.90;;;;;;5075407;28;20549;-91
2023/03/22 11:29:57;;;;;;;10.35;2.95;;;11.50;99.90;;;;;;5075714;28;20059;-93
2023/03/22 11:32:36;;;;;;;9.77;3.58;;;11.50;99.90;;;;;;5075565;28;20032;-94
2023/03/22 11:35:13;;;;;;;9.68;2.75;;;11.50;99.90;;;;;;5074116;28;20036;-94
2023/03/22 11:37:47;;;;;;;8.18;2.53;;;11.40;99.90;;;;;;5092050;28;20497;-96
2023/03/22 11:40:20;;;;;;;8.95;2.45;;;11.40;99.90;;;;;;5093852;28;20032;-95
2023/03/22 11:42:47;;;;;;;9.38;2.75;;;11.40;99.90;;;;;;5075729;28;20058;-94
2023/03/22 11:45:18;;;;;;;9.07;2.58;;;11.30;99.90;;;;;;5075399;28;20039;-94
2023/03/22 11:47:44;;;;;;;9.35;2.60;;;11.30;99.90;;;;;;5091779;28;20043;-95
2023/03/22 11:50:34;;;;;;;7.63;2.10;;;11.30;99.90;;;;;;5075790;28;20414;-95
2023/03/22 11:53:07;;;;;;;8.23;2.78;;;11.20;99.90;;;;;;5075404;28;20146;-95
2023/03/22 11:55:36;;;;;;;;;;;11.20;99.90;;;;;;5075625;28;20114;-95
2023/03/22 11:58:05;;;;;;;9.82;2.88;;;11.20;99.90;;;;;;5109359;28;19920;-94
2023/03/22 12:00:36;;;;;;;12.23;3.13;;;11.20;99.90;;;;;;5066671;28;20032;-94
2023/03/22 12:03:12;;;;;;;9.15;2.65;;;11.20;99.90;;;;;;5075736;28;20491;-95
2023/03/22 12:05:41;;;;;;;7.47;2.10;;;11.20;99.90;;;;;;5065338;28;20036;-93
2023/03/22 12:08:15;;;;;;;11.55;3.50;;;11.20;99.90;;;;;;5093043;28;20036;-95
2023/03/22 12:10:46;;;;;;;10.20;3.22;;;11.30;99.90;;;;;;5075971;28;20089;-95
2023/03/22 12:13:25;;;;;;;8.73;2.78;;;11.30;99.90;;;;;;5091527;28;20117;-94
2023/03/22 12:15:55;;;;;;;7.20;2.42;;;11.30;99.90;;;;;;5075071;28;20035;-95
2023/03/22 12:18:52;;;;;;;10.68;3.47;;;11.30;99.90;;;;;;5091229;28;20040;-93
2023/03/22 12:21:19;;;;;;;11.52;3.22;;;11.30;99.90;;;;;;5074861;28;20036;-95
2023/03/22 12:23:46;;;;;;;8.25;2.60;;;11.30;99.90;;;;;;5070860;28;20044;-93
2023/03/22 12:26:14;;;;;;;7.28;2.38;;;11.30;99.90;;;;;;5073230;28;20040;-93
2023/03/22 12:28:51;;;;;;;11.30;3.53;;;11.30;99.90;;;;;;5091461;28;20520;-94
2023/03/22 12:31:23;;;;;;;10.27;2.70;;;11.30;99.90;;;;;;5073521;28;20113;-93
2023/03/22 12:33:52;;;;;;;10.00;3.75;;;11.30;99.90;;;;;;5081935;28;20052;-94
2023/03/22 12:36:22;;;;;;;9.82;3.03;;;11.30;99.90;;;;;;5067278;28;20036;-94
2023/03/22 12:38:55;;;;;;;8.88;2.88;;;11.30;99.90;;;;;;5063418;28;20493;-93
2023/03/22 12:41:46;;;;;;;7.57;2.58;;;11.30;99.90;;;;;;5081652;28;20119;-93
2023/03/22 12:44:39;;;;;;;9.00;2.63;;;11.30;99.90;;;;;;5102512;28;20048;-94
2023/03/22 12:47:11;;;;;;;;;;;11.30;99.90;;;;;;5067805;28;20036;-94
2023/03/22 12:49:45;;;;;;;8.48;2.72;;;11.30;99.90;;;;;;5098883;28;20312;-94
2023/03/22 12:52:33;;;;;;;10.43;3.65;;;11.30;99.90;;;;;;5080704;28;20086;-94
2023/03/22 12:55:01;;;;;;;7.88;2.20;;;11.30;99.90;;;;;;5058446;28;20060;-92
2023/03/22 12:57:27;;;;;;;7.40;2.28;;;11.30;99.90;;;;;;5097426;28;20571;-93